sensor_id;sensor_type;location;lat;lon;timestamp;temperature;humidity
19928;DHT22;10126;50.876;4.470;2022-10-29T00:01:23;18.50;99.90
19928;DHT22;10126;50.876;4.470;2022-10-29T00:03:24;18.40;99.90
19928;DHT22;10126;50.876;4.470;2022-10-29T00:05:25;18.40;99.90
19928;DHT22;10126;50.876;4.470;2022-10-29T00:07:26;18.20;99.90
19928;DHT22;10126;50.876;4.470;2022-10-29T00:09:27;18.20;99.90
19928;DHT22;10126;50.876;4.470;2022-10-29T00:11:27;18.10;99.90
19928;DHT22;10126;50.876;4.470;2022-10-29T00:13:28;18.10;99.90
19928;DHT22;10126;50.876;4.470;2022-10-29T00:15:29;18.00;99.90
19928;DHT22;10126;50.876;4.470;2022-10-29T00:17:29;18.00;99.90
19928;DHT22;10126;50.876;4.470;2022-10-29T00:19:30;17.90;99.90
19928;DHT22;10126;50.876;4.470;2022-10-29T00:21:31;17.70;99.90
19928;DHT22;10126;50.876;4.470;2022-10-29T00:23:32;17.70;99.90
19928;DHT22;10126;50.876;4.470;2022-10-29T00:25:32;17.60;99.90
19928;DHT22;10126;50.876;4.470;2022-10-29T00:27:33;17.70;99.90
19928;DHT22;10126;50.876;4.470;2022-10-29T00:29:34;17.70;99.90
19928;DHT22;10126;50.876;4.470;2022-10-29T00:31:34;17.70;99.90
19928;DHT22;10126;50.876;4.470;2022-10-29T00:33:35;17.80;99.90
19928;DHT22;10126;50.876;4.470;2022-10-29T00:35:35;17.70;99.90
19928;DHT22;10126;50.876;4.470;2022-10-29T00:37:36;17.70;99.90
19928;DHT22;10126;50.876;4.470;2022-10-29T00:39:37;17.70;99.90
19928;DHT22;10126;50.876;4.470;2022-10-29T00:41:37;17.60;99.90
19928;DHT22;10126;50.876;4.470;2022-10-29T00:43:42;17.60;99.90
19928;DHT22;10126;50.876;4.470;2022-10-29T00:47:55;17.60;99.90
19928;DHT22;10126;50.876;4.470;2022-10-29T00:52:01;17.50;99.90
19928;DHT22;10126;50.876;4.470;2022-10-29T00:54:13;17.50;99.90
19928;DHT22;10126;50.876;4.470;2022-10-29T00:56:14;17.50;99.90
19928;DHT22;10126;50.876;4.470;2022-10-29T00:58:15;17.40;99.90
19928;DHT22;10126;50.876;4.470;2022-10-29T01:00:18;17.40;99.90
19928;DHT22;10126;50.876;4.470;2022-10-29T01:02:19;17.40;99.90
19928;DHT22;10126;50.876;4.470;2022-10-29T01:04:20;17.40;99.90
19928;DHT22;10126;50.876;4.470;2022-10-29T01:06:22;17.40;99.90
19928;DHT22;10126;50.876;4.470;2022-10-29T01:08:23;17.50;99.90
19928;DHT22;10126;50.876;4.470;2022-10-29T01:10:39;17.50;99.90
19928;DHT22;10126;50.876;4.470;2022-10-29T01:15:19;17.40;99.90
19928;DHT22;10126;50.876;4.470;2022-10-29T01:22:24;17.50;99.90
19928;DHT22;10126;50.876;4.470;2022-10-29T01:24:45;17.50;99.90
19928;DHT22;10126;50.876;4.470;2022-10-29T01:29:45;17.40;99.90
19928;DHT22;10126;50.876;4.470;2022-10-29T01:31:50;17.30;99.90
19928;DHT22;10126;50.876;4.470;2022-10-29T01:40:27;17.40;99.90
19928;DHT22;10126;50.876;4.470;2022-10-29T01:42:45;17.50;99.90
19928;DHT22;10126;50.876;4.470;2022-10-29T01:45:15;17.60;99.90
19928;DHT22;10126;50.876;4.470;2022-10-29T01:47:18;17.50;99.90
19928;DHT22;10126;50.876;4.470;2022-10-29T01:49:27;17.40;99.90
19928;DHT22;10126;50.876;4.470;2022-10-29T01:51:31;17.40;99.90
19928;DHT22;10126;50.876;4.470;2022-10-29T01:53:34;17.50;99.90
19928;DHT22;10126;50.876;4.470;2022-10-29T01:55:35;17.50;99.90
19928;DHT22;10126;50.876;4.470;2022-10-29T01:57:37;17.50;99.90
19928;DHT22;10126;50.876;4.470;2022-10-29T01:59:38;17.50;99.90
19928;DHT22;10126;50.876;4.470;2022-10-29T02:01:45;17.50;99.90
19928;DHT22;10126;50.876;4.470;2022-10-29T02:06:22;17.50;99.90
19928;DHT22;10126;50.876;4.470;2022-10-29T02:08:47;17.50;99.90
19928;DHT22;10126;50.876;4.470;2022-10-29T02:13:09;17.40;99.90
19928;DHT22;10126;50.876;4.470;2022-10-29T02:15:24;17.40;99.90
19928;DHT22;10126;50.876;4.470;2022-10-29T02:17:25;17.40;99.90
19928;DHT22;10126;50.876;4.470;2022-10-29T02:19:33;17.40;99.90
19928;DHT22;10126;50.876;4.470;2022-10-29T02:21:35;17.40;99.90
19928;DHT22;10126;50.876;4.470;2022-10-29T02:23:35;17.40;99.90
19928;DHT22;10126;50.876;4.470;2022-10-29T02:25:36;17.20;99.90
19928;DHT22;10126;50.876;4.470;2022-10-29T02:27:37;17.00;99.90
19928;DHT22;10126;50.876;4.470;2022-10-29T02:29:37;16.90;99.90
19928;DHT22;10126;50.876;4.470;2022-10-29T02:31:38;16.80;99.90
19928;DHT22;10126;50.876;4.470;2022-10-29T02:33:39;16.80;99.90
19928;DHT22;10126;50.876;4.470;2022-10-29T02:35:40;16.70;99.90
19928;DHT22;10126;50.876;4.470;2022-10-29T02:37:40;16.70;99.90
19928;DHT22;10126;50.876;4.470;2022-10-29T02:39:41;16.80;99.90
19928;DHT22;10126;50.876;4.470;2022-10-29T02:41:41;16.90;99.90
19928;DHT22;10126;50.876;4.470;2022-10-29T02:43:42;16.90;99.90
19928;DHT22;10126;50.876;4.470;2022-10-29T02:45:43;17.10;99.90
19928;DHT22;10126;50.876;4.470;2022-10-29T02:47:43;17.30;99.90
19928;DHT22;10126;50.876;4.470;2022-10-29T02:49:44;17.40;99.90
19928;DHT22;10126;50.876;4.470;2022-10-29T02:51:45;17.30;99.90
19928;DHT22;10126;50.876;4.470;2022-10-29T02:53:45;17.30;99.90
19928;DHT22;10126;50.876;4.470;2022-10-29T02:55:46;17.30;99.90
19928;DHT22;10126;50.876;4.470;2022-10-29T02:57:46;17.20;99.90
19928;DHT22;10126;50.876;4.470;2022-10-29T02:59:47;17.20;99.90
19928;DHT22;10126;50.876;4.470;2022-10-29T03:01:48;17.40;99.90
19928;DHT22;10126;50.876;4.470;2022-10-29T03:03:48;17.40;99.90
19928;DHT22;10126;50.876;4.470;2022-10-29T03:05:49;17.50;99.90
19928;DHT22;10126;50.876;4.470;2022-10-29T03:07:50;17.40;99.90
19928;DHT22;10126;50.876;4.470;2022-10-29T03:09:51;17.30;99.90
19928;DHT22;10126;50.876;4.470;2022-10-29T03:11:51;17.40;99.90
19928;DHT22;10126;50.876;4.470;2022-10-29T03:13:52;17.30;99.90
19928;DHT22;10126;50.876;4.470;2022-10-29T03:15:52;17.40;99.90
19928;DHT22;10126;50.876;4.470;2022-10-29T03:17:53;17.50;99.90
19928;DHT22;10126;50.876;4.470;2022-10-29T03:19:54;17.50;99.90
19928;DHT22;10126;50.876;4.470;2022-10-29T03:21:54;17.40;99.90
19928;DHT22;10126;50.876;4.470;2022-10-29T03:23:55;17.30;99.90
19928;DHT22;10126;50.876;4.470;2022-10-29T03:25:55;17.30;99.90
19928;DHT22;10126;50.876;4.470;2022-10-29T03:27:56;17.20;99.90
19928;DHT22;10126;50.876;4.470;2022-10-29T03:29:57;17.10;99.90
19928;DHT22;10126;50.876;4.470;2022-10-29T03:31:57;17.30;99.90
19928;DHT22;10126;50.876;4.470;2022-10-29T03:33:58;17.50;99.90
19928;DHT22;10126;50.876;4.470;2022-10-29T03:36:01;17.40;99.90
19928;DHT22;10126;50.876;4.470;2022-10-29T03:38:02;17.40;99.90
19928;DHT22;10126;50.876;4.470;2022-10-29T03:40:03;17.40;99.90
19928;DHT22;10126;50.876;4.470;2022-10-29T03:42:04;17.40;99.90
19928;DHT22;10126;50.876;4.470;2022-10-29T03:44:05;17.20;99.90
19928;DHT22;10126;50.876;4.470;2022-10-29T03:46:06;17.20;99.90
19928;DHT22;10126;50.876;4.470;2022-10-29T03:48:06;17.10;99.90
19928;DHT22;10126;50.876;4.470;2022-10-29T03:50:07;17.20;99.90
19928;DHT22;10126;50.876;4.470;2022-10-29T03:52:08;17.30;99.90
19928;DHT22;10126;50.876;4.470;2022-10-29T03:54:09;17.50;99.90
19928;DHT22;10126;50.876;4.470;2022-10-29T03:56:10;17.60;99.90
19928;DHT22;10126;50.876;4.470;2022-10-29T03:58:10;17.70;99.90
19928;DHT22;10126;50.876;4.470;2022-10-29T04:00:11;17.50;99.90
19928;DHT22;10126;50.876;4.470;2022-10-29T04:02:12;17.40;99.90
19928;DHT22;10126;50.876;4.470;2022-10-29T04:04:13;17.50;99.90
19928;DHT22;10126;50.876;4.470;2022-10-29T04:06:14;17.50;99.90
19928;DHT22;10126;50.876;4.470;2022-10-29T04:08:15;17.50;99.90
19928;DHT22;10126;50.876;4.470;2022-10-29T04:10:16;17.40;99.90
19928;DHT22;10126;50.876;4.470;2022-10-29T04:12:16;17.30;99.90
19928;DHT22;10126;50.876;4.470;2022-10-29T04:14:17;17.20;99.90
19928;DHT22;10126;50.876;4.470;2022-10-29T04:16:17;17.20;99.90
19928;DHT22;10126;50.876;4.470;2022-10-29T04:18:18;17.10;99.90
19928;DHT22;10126;50.876;4.470;2022-10-29T04:20:19;17.10;99.90
19928;DHT22;10126;50.876;4.470;2022-10-29T04:22:19;17.00;99.90
19928;DHT22;10126;50.876;4.470;2022-10-29T04:24:20;17.20;99.90
19928;DHT22;10126;50.876;4.470;2022-10-29T04:26:20;17.30;99.90
19928;DHT22;10126;50.876;4.470;2022-10-29T04:28:21;17.30;99.90
19928;DHT22;10126;50.876;4.470;2022-10-29T04:30:23;17.40;99.90
19928;DHT22;10126;50.876;4.470;2022-10-29T04:32:24;17.20;99.90
19928;DHT22;10126;50.876;4.470;2022-10-29T04:34:24;17.20;99.90
19928;DHT22;10126;50.876;4.470;2022-10-29T04:36:25;17.30;99.90
19928;DHT22;10126;50.876;4.470;2022-10-29T04:38:25;17.30;99.90
19928;DHT22;10126;50.876;4.470;2022-10-29T04:40:26;17.20;99.90
19928;DHT22;10126;50.876;4.470;2022-10-29T04:42:26;17.10;99.90
19928;DHT22;10126;50.876;4.470;2022-10-29T04:44:27;17.20;99.90
19928;DHT22;10126;50.876;4.470;2022-10-29T04:46:28;17.10;99.90
19928;DHT22;10126;50.876;4.470;2022-10-29T04:48:28;17.10;99.90
19928;DHT22;10126;50.876;4.470;2022-10-29T04:50:30;16.90;99.90
19928;DHT22;10126;50.876;4.470;2022-10-29T04:52:31;17.10;99.90
19928;DHT22;10126;50.876;4.470;2022-10-29T04:54:31;17.10;99.90
19928;DHT22;10126;50.876;4.470;2022-10-29T04:56:32;17.10;99.90
19928;DHT22;10126;50.876;4.470;2022-10-29T04:58:33;17.10;99.90
19928;DHT22;10126;50.876;4.470;2022-10-29T05:00:33;17.20;99.90
19928;DHT22;10126;50.876;4.470;2022-10-29T05:02:35;17.30;99.90
19928;DHT22;10126;50.876;4.470;2022-10-29T05:04:35;17.20;99.90
19928;DHT22;10126;50.876;4.470;2022-10-29T05:06:36;17.10;99.90
19928;DHT22;10126;50.876;4.470;2022-10-29T05:08:36;16.90;99.90
19928;DHT22;10126;50.876;4.470;2022-10-29T05:10:38;17.00;99.90
19928;DHT22;10126;50.876;4.470;2022-10-29T05:12:39;16.90;99.90
19928;DHT22;10126;50.876;4.470;2022-10-29T05:14:40;16.70;99.90
19928;DHT22;10126;50.876;4.470;2022-10-29T05:16:40;16.70;99.90
19928;DHT22;10126;50.876;4.470;2022-10-29T05:18:41;16.70;99.90
19928;DHT22;10126;50.876;4.470;2022-10-29T05:20:42;16.70;99.90
19928;DHT22;10126;50.876;4.470;2022-10-29T05:22:43;16.70;99.90
19928;DHT22;10126;50.876;4.470;2022-10-29T05:24:43;16.60;99.90
19928;DHT22;10126;50.876;4.470;2022-10-29T05:26:44;16.60;99.90
19928;DHT22;10126;50.876;4.470;2022-10-29T05:28:47;16.70;99.90
19928;DHT22;10126;50.876;4.470;2022-10-29T05:30:49;16.70;99.90
19928;DHT22;10126;50.876;4.470;2022-10-29T05:32:50;16.70;99.90
19928;DHT22;10126;50.876;4.470;2022-10-29T05:34:51;16.70;99.90
19928;DHT22;10126;50.876;4.470;2022-10-29T05:36:51;16.70;99.90
19928;DHT22;10126;50.876;4.470;2022-10-29T05:38:52;16.70;99.90
19928;DHT22;10126;50.876;4.470;2022-10-29T05:40:52;16.70;99.90
19928;DHT22;10126;50.876;4.470;2022-10-29T05:42:53;16.80;99.90
19928;DHT22;10126;50.876;4.470;2022-10-29T05:44:54;16.70;99.90
19928;DHT22;10126;50.876;4.470;2022-10-29T05:46:54;16.60;99.90
19928;DHT22;10126;50.876;4.470;2022-10-29T05:48:55;16.70;99.90
19928;DHT22;10126;50.876;4.470;2022-10-29T05:50:58;16.60;99.90
19928;DHT22;10126;50.876;4.470;2022-10-29T05:53:04;16.70;99.90
19928;DHT22;10126;50.876;4.470;2022-10-29T05:55:05;16.60;99.90
19928;DHT22;10126;50.876;4.470;2022-10-29T05:57:06;16.60;99.90
19928;DHT22;10126;50.876;4.470;2022-10-29T05:59:07;16.60;99.90
19928;DHT22;10126;50.876;4.470;2022-10-29T06:01:08;16.50;99.90
19928;DHT22;10126;50.876;4.470;2022-10-29T06:03:18;16.30;99.90
19928;DHT22;10126;50.876;4.470;2022-10-29T06:05:20;16.40;99.90
19928;DHT22;10126;50.876;4.470;2022-10-29T06:07:20;16.30;99.90
19928;DHT22;10126;50.876;4.470;2022-10-29T06:09:21;16.30;99.90
19928;DHT22;10126;50.876;4.470;2022-10-29T06:11:21;16.30;99.90
19928;DHT22;10126;50.876;4.470;2022-10-29T06:13:22;16.40;99.90
19928;DHT22;10126;50.876;4.470;2022-10-29T06:15:22;16.40;99.90
19928;DHT22;10126;50.876;4.470;2022-10-29T06:17:23;16.40;99.90
19928;DHT22;10126;50.876;4.470;2022-10-29T06:19:24;16.40;99.90
19928;DHT22;10126;50.876;4.470;2022-10-29T06:21:24;16.40;99.90
19928;DHT22;10126;50.876;4.470;2022-10-29T06:23:26;16.40;99.90
19928;DHT22;10126;50.876;4.470;2022-10-29T06:25:27;16.40;99.90
19928;DHT22;10126;50.876;4.470;2022-10-29T06:27:28;16.40;99.90
19928;DHT22;10126;50.876;4.470;2022-10-29T06:29:28;16.30;99.90
19928;DHT22;10126;50.876;4.470;2022-10-29T06:31:29;16.30;99.90
19928;DHT22;10126;50.876;4.470;2022-10-29T06:33:29;16.30;99.90
19928;DHT22;10126;50.876;4.470;2022-10-29T06:35:30;16.30;99.90
19928;DHT22;10126;50.876;4.470;2022-10-29T06:37:31;16.20;99.90
19928;DHT22;10126;50.876;4.470;2022-10-29T06:39:32;16.30;99.90
19928;DHT22;10126;50.876;4.470;2022-10-29T06:41:33;16.20;99.90
19928;DHT22;10126;50.876;4.470;2022-10-29T06:43:34;16.10;99.90
19928;DHT22;10126;50.876;4.470;2022-10-29T06:45:34;16.30;99.90
19928;DHT22;10126;50.876;4.470;2022-10-29T06:47:43;16.30;99.90
19928;DHT22;10126;50.876;4.470;2022-10-29T06:49:43;16.40;99.90
19928;DHT22;10126;50.876;4.470;2022-10-29T06:51:44;16.50;99.90
19928;DHT22;10126;50.876;4.470;2022-10-29T06:53:45;16.60;99.90
19928;DHT22;10126;50.876;4.470;2022-10-29T06:55:45;16.70;99.90
19928;DHT22;10126;50.876;4.470;2022-10-29T06:57:46;16.80;99.90
19928;DHT22;10126;50.876;4.470;2022-10-29T06:59:46;16.80;99.90
19928;DHT22;10126;50.876;4.470;2022-10-29T07:01:47;16.80;99.90
19928;DHT22;10126;50.876;4.470;2022-10-29T07:03:47;16.70;99.90
19928;DHT22;10126;50.876;4.470;2022-10-29T07:05:54;16.90;99.90
19928;DHT22;10126;50.876;4.470;2022-10-29T07:07:57;17.10;99.90
19928;DHT22;10126;50.876;4.470;2022-10-29T07:09:58;17.20;99.90
19928;DHT22;10126;50.876;4.470;2022-10-29T07:11:58;17.20;99.90
19928;DHT22;10126;50.876;4.470;2022-10-29T07:13:59;17.00;99.90
19928;DHT22;10126;50.876;4.470;2022-10-29T07:16:00;16.90;99.90
19928;DHT22;10126;50.876;4.470;2022-10-29T07:18:02;16.90;99.90
19928;DHT22;10126;50.876;4.470;2022-10-29T07:20:04;16.90;99.90
19928;DHT22;10126;50.876;4.470;2022-10-29T07:22:05;16.80;99.90
19928;DHT22;10126;50.876;4.470;2022-10-29T07:24:06;16.90;99.90
19928;DHT22;10126;50.876;4.470;2022-10-29T07:26:06;17.00;99.90
19928;DHT22;10126;50.876;4.470;2022-10-29T07:30:12;17.20;99.90
19928;DHT22;10126;50.876;4.470;2022-10-29T07:32:13;17.40;99.90
19928;DHT22;10126;50.876;4.470;2022-10-29T07:34:14;17.60;99.90
19928;DHT22;10126;50.876;4.470;2022-10-29T07:36:14;17.70;99.90
19928;DHT22;10126;50.876;4.470;2022-10-29T07:38:15;17.90;99.90
19928;DHT22;10126;50.876;4.470;2022-10-29T07:40:16;18.10;99.90
19928;DHT22;10126;50.876;4.470;2022-10-29T07:42:16;18.20;99.90
19928;DHT22;10126;50.876;4.470;2022-10-29T07:44:18;18.20;99.90
19928;DHT22;10126;50.876;4.470;2022-10-29T07:46:18;18.20;99.90
19928;DHT22;10126;50.876;4.470;2022-10-29T07:48:19;18.20;99.90
19928;DHT22;10126;50.876;4.470;2022-10-29T07:50:20;18.20;99.90
19928;DHT22;10126;50.876;4.470;2022-10-29T07:52:21;18.30;99.90
19928;DHT22;10126;50.876;4.470;2022-10-29T07:54:21;18.20;99.90
19928;DHT22;10126;50.876;4.470;2022-10-29T07:56:22;18.20;99.90
19928;DHT22;10126;50.876;4.470;2022-10-29T07:58:25;18.30;99.90
19928;DHT22;10126;50.876;4.470;2022-10-29T08:00:29;18.50;99.90
19928;DHT22;10126;50.876;4.470;2022-10-29T08:02:30;18.60;99.90
19928;DHT22;10126;50.876;4.470;2022-10-29T08:04:31;18.70;99.90
19928;DHT22;10126;50.876;4.470;2022-10-29T08:06:31;18.80;99.90
19928;DHT22;10126;50.876;4.470;2022-10-29T08:08:32;18.90;99.90
19928;DHT22;10126;50.876;4.470;2022-10-29T08:10:34;19.00;99.90
19928;DHT22;10126;50.876;4.470;2022-10-29T08:12:35;19.10;99.90
19928;DHT22;10126;50.876;4.470;2022-10-29T08:14:36;19.10;99.90
19928;DHT22;10126;50.876;4.470;2022-10-29T08:16:37;19.00;99.90
19928;DHT22;10126;50.876;4.470;2022-10-29T08:18:37;19.10;99.90
19928;DHT22;10126;50.876;4.470;2022-10-29T08:20:38;19.10;99.90
19928;DHT22;10126;50.876;4.470;2022-10-29T08:22:38;19.20;99.90
19928;DHT22;10126;50.876;4.470;2022-10-29T08:24:39;19.30;99.90
19928;DHT22;10126;50.876;4.470;2022-10-29T08:26:39;19.30;99.90
19928;DHT22;10126;50.876;4.470;2022-10-29T08:28:40;19.50;99.90
19928;DHT22;10126;50.876;4.470;2022-10-29T08:30:42;19.60;99.90
19928;DHT22;10126;50.876;4.470;2022-10-29T08:32:47;19.70;99.90
19928;DHT22;10126;50.876;4.470;2022-10-29T08:34:48;19.70;99.90
19928;DHT22;10126;50.876;4.470;2022-10-29T08:36:49;19.70;99.90
19928;DHT22;10126;50.876;4.470;2022-10-29T08:38:49;19.80;99.90
19928;DHT22;10126;50.876;4.470;2022-10-29T08:45:44;20.20;99.90
19928;DHT22;10126;50.876;4.470;2022-10-29T08:50:26;20.60;99.90
19928;DHT22;10126;50.876;4.470;2022-10-29T08:52:29;20.90;99.90
19928;DHT22;10126;50.876;4.470;2022-10-29T08:54:35;21.00;99.90
19928;DHT22;10126;50.876;4.470;2022-10-29T08:56:39;21.00;99.90
19928;DHT22;10126;50.876;4.470;2022-10-29T09:01:11;21.20;99.90
19928;DHT22;10126;50.876;4.470;2022-10-29T09:03:12;21.20;99.90
19928;DHT22;10126;50.876;4.470;2022-10-29T09:05:19;21.10;99.90
19928;DHT22;10126;50.876;4.470;2022-10-29T09:10:31;20.90;99.90
19928;DHT22;10126;50.876;4.470;2022-10-29T09:12:55;20.90;99.90
19928;DHT22;10126;50.876;4.470;2022-10-29T09:17:34;21.00;99.90
19928;DHT22;10126;50.876;4.470;2022-10-29T09:22:01;21.10;99.90
19928;DHT22;10126;50.876;4.470;2022-10-29T09:24:10;21.10;99.90
19928;DHT22;10126;50.876;4.470;2022-10-29T09:26:32;21.10;99.90
19928;DHT22;10126;50.876;4.470;2022-10-29T09:33:18;21.20;99.90
19928;DHT22;10126;50.876;4.470;2022-10-29T09:35:21;21.30;99.90
19928;DHT22;10126;50.876;4.470;2022-10-29T09:37:53;21.60;99.90
19928;DHT22;10126;50.876;4.470;2022-10-29T09:39:56;21.70;99.90
19928;DHT22;10126;50.876;4.470;2022-10-29T09:42:00;21.80;99.90
19928;DHT22;10126;50.876;4.470;2022-10-29T09:44:20;21.60;99.90
19928;DHT22;10126;50.876;4.470;2022-10-29T09:48:37;21.80;99.90
19928;DHT22;10126;50.876;4.470;2022-10-29T09:51:04;21.80;99.90
19928;DHT22;10126;50.876;4.470;2022-10-29T09:53:07;21.80;99.90
19928;DHT22;10126;50.876;4.470;2022-10-29T09:57:21;21.80;99.90
19928;DHT22;10126;50.876;4.470;2022-10-29T09:59:34;21.70;99.90
19928;DHT22;10126;50.876;4.470;2022-10-29T10:01:36;21.90;99.90
19928;DHT22;10126;50.876;4.470;2022-10-29T10:03:40;22.00;99.90
19928;DHT22;10126;50.876;4.470;2022-10-29T10:06:08;22.30;99.90
19928;DHT22;10126;50.876;4.470;2022-10-29T10:08:13;22.50;99.90
19928;DHT22;10126;50.876;4.470;2022-10-29T10:10:21;22.70;99.90
19928;DHT22;10126;50.876;4.470;2022-10-29T10:12:28;22.90;99.90
19928;DHT22;10126;50.876;4.470;2022-10-29T10:14:42;23.00;99.90
19928;DHT22;10126;50.876;4.470;2022-10-29T10:16:43;23.10;99.90
19928;DHT22;10126;50.876;4.470;2022-10-29T10:18:44;23.00;99.90
19928;DHT22;10126;50.876;4.470;2022-10-29T10:25:37;23.10;99.90
19928;DHT22;10126;50.876;4.470;2022-10-29T10:27:38;23.10;99.90
19928;DHT22;10126;50.876;4.470;2022-10-29T10:29:38;23.10;99.90
19928;DHT22;10126;50.876;4.470;2022-10-29T10:31:49;23.10;99.90
19928;DHT22;10126;50.876;4.470;2022-10-29T10:33:53;23.10;99.90
19928;DHT22;10126;50.876;4.470;2022-10-29T10:35:54;23.30;99.90
19928;DHT22;10126;50.876;4.470;2022-10-29T10:37:55;23.50;99.90
19928;DHT22;10126;50.876;4.470;2022-10-29T10:40:05;23.70;99.90
19928;DHT22;10126;50.876;4.470;2022-10-29T10:42:15;23.70;99.90
19928;DHT22;10126;50.876;4.470;2022-10-29T10:44:17;23.80;99.90
19928;DHT22;10126;50.876;4.470;2022-10-29T10:46:25;23.80;99.90
19928;DHT22;10126;50.876;4.470;2022-10-29T10:48:26;23.80;99.90
19928;DHT22;10126;50.876;4.470;2022-10-29T10:50:28;23.80;99.90
19928;DHT22;10126;50.876;4.470;2022-10-29T10:52:30;23.70;99.90
19928;DHT22;10126;50.876;4.470;2022-10-29T10:54:37;23.80;99.90
19928;DHT22;10126;50.876;4.470;2022-10-29T10:56:54;24.10;99.90
19928;DHT22;10126;50.876;4.470;2022-10-29T10:59:10;24.30;99.90
19928;DHT22;10126;50.876;4.470;2022-10-29T11:01:19;24.60;99.90
19928;DHT22;10126;50.876;4.470;2022-10-29T11:03:46;24.90;99.90
19928;DHT22;10126;50.876;4.470;2022-10-29T11:05:56;24.70;99.90
19928;DHT22;10126;50.876;4.470;2022-10-29T11:08:05;24.80;99.90
19928;DHT22;10126;50.876;4.470;2022-10-29T11:10:11;25.00;99.90
19928;DHT22;10126;50.876;4.470;2022-10-29T11:12:18;25.10;99.90
19928;DHT22;10126;50.876;4.470;2022-10-29T11:14:31;25.10;99.90
19928;DHT22;10126;50.876;4.470;2022-10-29T11:16:40;25.00;99.90
19928;DHT22;10126;50.876;4.470;2022-10-29T11:25:30;24.90;99.90
19928;DHT22;10126;50.876;4.470;2022-10-29T11:30:13;25.00;99.90
19928;DHT22;10126;50.876;4.470;2022-10-29T11:32:36;25.00;99.90
19928;DHT22;10126;50.876;4.470;2022-10-29T11:34:50;25.10;99.90
19928;DHT22;10126;50.876;4.470;2022-10-29T11:37:24;25.00;99.90
19928;DHT22;10126;50.876;4.470;2022-10-29T11:42:01;24.80;99.90
19928;DHT22;10126;50.876;4.470;2022-10-29T11:44:03;24.80;99.90
19928;DHT22;10126;50.876;4.470;2022-10-29T11:49:14;25.20;99.90
19928;DHT22;10126;50.876;4.470;2022-10-29T11:58:01;25.40;99.90
19928;DHT22;10126;50.876;4.470;2022-10-29T12:00:18;25.50;99.90
19928;DHT22;10126;50.876;4.470;2022-10-29T12:04:52;25.30;99.90
19928;DHT22;10126;50.876;4.470;2022-10-29T12:11:38;25.20;99.90
19928;DHT22;10126;50.876;4.470;2022-10-29T12:14:00;25.20;99.90
19928;DHT22;10126;50.876;4.470;2022-10-29T12:23:06;25.40;99.90
19928;DHT22;10126;50.876;4.470;2022-10-29T12:32:05;25.20;99.90
19928;DHT22;10126;50.876;4.470;2022-10-29T12:34:24;25.20;99.90
19928;DHT22;10126;50.876;4.470;2022-10-29T12:36:47;25.20;99.90
19928;DHT22;10126;50.876;4.470;2022-10-29T12:38:54;25.40;99.90
19928;DHT22;10126;50.876;4.470;2022-10-29T12:41:08;25.60;99.90
19928;DHT22;10126;50.876;4.470;2022-10-29T12:43:25;25.80;99.90
19928;DHT22;10126;50.876;4.470;2022-10-29T12:45:38;25.80;99.90
19928;DHT22;10126;50.876;4.470;2022-10-29T12:48:17;25.90;99.90
19928;DHT22;10126;50.876;4.470;2022-10-29T12:52:48;26.20;99.90
19928;DHT22;10126;50.876;4.470;2022-10-29T12:54:53;26.40;99.90
19928;DHT22;10126;50.876;4.470;2022-10-29T12:56:55;26.50;99.90
19928;DHT22;10126;50.876;4.470;2022-10-29T12:59:34;26.60;99.90
19928;DHT22;10126;50.876;4.470;2022-10-29T13:04:03;26.80;99.90
19928;DHT22;10126;50.876;4.470;2022-10-29T13:06:43;26.70;99.90
19928;DHT22;10126;50.876;4.470;2022-10-29T13:08:54;26.80;99.90
19928;DHT22;10126;50.876;4.470;2022-10-29T13:10:56;26.80;99.90
19928;DHT22;10126;50.876;4.470;2022-10-29T13:15:15;26.90;99.90
19928;DHT22;10126;50.876;4.470;2022-10-29T13:19:37;26.70;99.90
19928;DHT22;10126;50.876;4.470;2022-10-29T13:24:03;26.70;99.90
19928;DHT22;10126;50.876;4.470;2022-10-29T13:26:05;26.50;99.90
19928;DHT22;10126;50.876;4.470;2022-10-29T13:30:20;26.50;99.90
19928;DHT22;10126;50.876;4.470;2022-10-29T13:32:31;26.40;99.90
19928;DHT22;10126;50.876;4.470;2022-10-29T13:34:48;26.50;99.90
19928;DHT22;10126;50.876;4.470;2022-10-29T13:36:49;26.50;99.90
19928;DHT22;10126;50.876;4.470;2022-10-29T13:43:18;26.40;99.90
19928;DHT22;10126;50.876;4.470;2022-10-29T13:45:19;26.20;99.90
19928;DHT22;10126;50.876;4.470;2022-10-29T13:47:20;26.30;99.90
19928;DHT22;10126;50.876;4.470;2022-10-29T13:49:42;26.20;99.90
19928;DHT22;10126;50.876;4.470;2022-10-29T13:51:59;26.20;99.90
19928;DHT22;10126;50.876;4.470;2022-10-29T13:54:05;26.40;99.90
19928;DHT22;10126;50.876;4.470;2022-10-29T13:56:09;26.40;99.90
19928;DHT22;10126;50.876;4.470;2022-10-29T13:58:28;26.30;99.90
19928;DHT22;10126;50.876;4.470;2022-10-29T14:00:31;26.30;99.90
19928;DHT22;10126;50.876;4.470;2022-10-29T14:04:40;25.90;99.90
19928;DHT22;10126;50.876;4.470;2022-10-29T14:06:42;25.70;99.90
19928;DHT22;10126;50.876;4.470;2022-10-29T14:08:52;25.50;99.90
19928;DHT22;10126;50.876;4.470;2022-10-29T14:11:00;25.30;99.90
19928;DHT22;10126;50.876;4.470;2022-10-29T14:13:34;25.30;99.90
19928;DHT22;10126;50.876;4.470;2022-10-29T14:16:16;25.50;99.90
19928;DHT22;10126;50.876;4.470;2022-10-29T14:18:26;25.20;99.90
19928;DHT22;10126;50.876;4.470;2022-10-29T14:20:28;25.00;99.90
19928;DHT22;10126;50.876;4.470;2022-10-29T14:22:38;24.80;99.90
19928;DHT22;10126;50.876;4.470;2022-10-29T14:24:38;24.70;99.90
19928;DHT22;10126;50.876;4.470;2022-10-29T14:26:42;24.50;99.90
19928;DHT22;10126;50.876;4.470;2022-10-29T14:28:42;24.50;99.90
19928;DHT22;10126;50.876;4.470;2022-10-29T14:30:47;24.50;99.90
19928;DHT22;10126;50.876;4.470;2022-10-29T14:32:48;24.60;99.90
19928;DHT22;10126;50.876;4.470;2022-10-29T14:34:49;24.40;99.90
19928;DHT22;10126;50.876;4.470;2022-10-29T14:36:52;24.20;99.90
19928;DHT22;10126;50.876;4.470;2022-10-29T14:39:19;24.10;99.90
19928;DHT22;10126;50.876;4.470;2022-10-29T14:41:23;24.10;99.90
19928;DHT22;10126;50.876;4.470;2022-10-29T14:43:26;24.10;99.90
19928;DHT22;10126;50.876;4.470;2022-10-29T14:45:29;24.00;99.90
19928;DHT22;10126;50.876;4.470;2022-10-29T14:47:35;24.00;99.90
19928;DHT22;10126;50.876;4.470;2022-10-29T14:49:39;24.00;99.90
19928;DHT22;10126;50.876;4.470;2022-10-29T14:51:56;24.20;99.90
19928;DHT22;10126;50.876;4.470;2022-10-29T14:54:01;24.30;99.90
19928;DHT22;10126;50.876;4.470;2022-10-29T14:56:09;24.30;99.90
19928;DHT22;10126;50.876;4.470;2022-10-29T15:00:29;24.20;99.90
19928;DHT22;10126;50.876;4.470;2022-10-29T15:02:35;24.10;99.90
19928;DHT22;10126;50.876;4.470;2022-10-29T15:04:53;24.00;99.90
19928;DHT22;10126;50.876;4.470;2022-10-29T15:09:26;23.90;99.90
19928;DHT22;10126;50.876;4.470;2022-10-29T15:13:34;23.70;99.90
19928;DHT22;10126;50.876;4.470;2022-10-29T15:15:36;23.60;99.90